• Join FlightAware (Why Join?)
  • Login
  • US Flag 
Gobble Gobble! 
05:22PM EST


 

Airport Tracker/Info


-or-


 

Live Flight TrackerFlight Track Log ✈ CPT7773 ✈ 09-Oct-2013 ✈ KCOD - KCPR

Flight Track Log - Related Links

Times and Time Zones

All times are in EDT time to prevent confusion due to time zone crossing. See the CPT7773 flight status page for this flight to view local times or setup timezone preferences in your user account.

Time Position Orientation Groundspeed Altitude Reporting Facility
EDT Latitude Longitude Course Direction KTS MPH feet Rate Location/Type
08:30PM 44.3878 -108.7842 133° Southeast 127 146 12,000  Level Salt Lake Center
08:31PM 44.3578 -108.7361 131° Southeast 143 165 11,900 -60 Descending Salt Lake Center
08:32PM 44.3297 -108.6881 129° Southeast 153 176 11,900  Level Salt Lake Center
08:33PM 44.3011 -108.6425 131° Southeast 156 180 11,900  Level Salt Lake Center
08:34PM 44.2728 -108.5972 131° Southeast 156 180 11,900  Level Salt Lake Center
08:35PM 44.3520 -108.7458 133° Southeast  Level Estimated
08:35PM 44.2444 -108.5519 131° Southeast 156 180 11,900  Level Salt Lake Center
08:36PM 44.2119 -108.4961 129° Southeast 155 178 11,900  Level Salt Lake Center
08:37PM 44.1831 -108.4522 133° Southeast 155 178 11,900  Level Salt Lake Center
08:38PM 44.1544 -108.4058 131° Southeast 156 180 11,900  Level Salt Lake Center
08:39PM 44.1258 -108.3608 132° Southeast 156 180 11,900  Level Salt Lake Center
08:40PM 44.0981 -108.3158 131° Southeast 156 180 11,900  Level Salt Lake Center
08:41PM 44.0706 -108.2714 131° Southeast 154 177 11,900  Level Salt Lake Center
08:42PM 44.0431 -108.2253 130° Southeast 154 177 11,900  Level Salt Lake Center
08:43PM 44.0089 -108.1725 132° Southeast 154 177 11,900  Level Salt Lake Center
08:44PM 43.9808 -108.1286 132° Southeast 154 177 11,900  Level Salt Lake Center
08:45PM 43.9522 -108.0836 131° Southeast 154 177 11,900  Level Salt Lake Center
08:46PM 43.9247 -108.0378 130° Southeast 155 178 11,900  Level Salt Lake Center
08:47PM 43.8964 -107.9942 132° Southeast 154 177 11,900  Level Salt Lake Center
08:48PM 43.8683 -107.9503 132° Southeast 153 176 11,900  Level Salt Lake Center
08:49PM 43.8333 -107.8969 132° Southeast 154 177 11,900  Level Salt Lake Center
08:50PM 43.8044 -107.8519 132° Southeast 156 180 11,900  Level Salt Lake Center
08:51PM 43.7761 -107.8069 131° Southeast 156 180 11,900  Level Salt Lake Center
08:52PM 43.7469 -107.7617 132° Southeast 156 180 11,900  Level Salt Lake Center
08:53PM 43.7183 -107.7150 130° Southeast 157 181 12,000  Climbing Salt Lake Center
08:55PM 43.6894 -107.6706 132° Southeast 158 182 12,000 -60 Level Salt Lake Center
08:56PM 43.6536 -107.6169 133° Southeast 158 182 11,900 -60 Descending Salt Lake Center
08:57PM 43.6256 -107.5717 131° Southeast 157 181 11,900  Level Salt Lake Center
08:58PM 43.5969 -107.5269 131° Southeast 156 180 11,900  Level Salt Lake Center
08:59PM 43.5686 -107.4819 131° Southeast 156 180 11,900  Level Salt Lake Center
09:00PM 43.5394 -107.4375 132° Southeast 156 180 11,900  Level Salt Lake Center
09:01PM 43.5111 -107.3939 132° Southeast 155 178 11,900  Level Salt Lake Center
09:02PM 43.4833 -107.3508 132° Southeast 153 176 11,900  Level Salt Lake Center
09:03PM 43.4497 -107.3008 133° Southeast 150 173 12,000  Climbing Salt Lake Center
09:04PM 43.4228 -107.2578 131° Southeast 149 171 11,900 -60 Descending Salt Lake Center
09:05PM 43.3958 -107.2147 131° Southeast 149 171 11,900  Level Salt Lake Center
09:06PM 43.3681 -107.1725 132° Southeast 149 171 11,900  Level Salt Lake Center
09:07PM 43.3403 -107.1272 130° Southeast 154 177 11,900  Level Salt Lake Center
09:08PM 43.3108 -107.0839 133° Southeast 155 178 11,900  Level Salt Lake Center
09:09PM 43.2825 -107.0381 130° Southeast 157 181 11,900  Level Salt Lake Center
09:10PM 43.2478 -106.9858 132° Southeast 156 180 11,900  Level Salt Lake Center
09:11PM 43.2178 -106.9419 133° Southeast 157 181 11,900  Level Salt Lake Center
09:12PM 43.1867 -106.8961 133° Southeast 155 178 11,900  Level Salt Lake Center
09:13PM 43.1597 -106.8544 132° Southeast 154 177 11,900  Level Salt Lake Center
09:14PM 43.1331 -106.8122 131° Southeast 153 176 11,900  Level Salt Lake Center
09:15PM 43.1147 -106.7828 130° Southeast 155 178 11,900  Level Denver Center
09:16PM 43.0878 -106.7406 131° Southeast 155 178 11,900  Level Denver Center
09:17PM 43.0556 -106.6911 132° Southeast 155 178 11,900 -240 Level Denver Center
09:18PM 43.0258 -106.6494 134° Southeast 159 183 11,500 -1,260 Descending Denver Center
09:19PM 42.9867 -106.5958 135° Southeast 174 200 9,400 -1,980 Descending Denver Center
09:20PM 42.9542 -106.5544 137° Southeast 171 197 7,500 -1,200 Descending Denver Center
09:21PM 42.9153 -106.5117 141° Southeast 170 196 7,000 -540 Descending Denver Center